createdAt,value
2018-11-22T00:00:24.098Z,88.40
2018-11-22T00:03:10.873Z,88.20
2018-11-22T00:05:38.270Z,89.40
2018-11-22T00:08:25.618Z,89.00
2018-11-22T00:11:12.656Z,89.00
2018-11-22T00:13:40.140Z,89.70
2018-11-22T00:16:27.054Z,89.90
2018-11-22T00:19:14.206Z,88.60
2018-11-22T00:22:00.993Z,88.10
2018-11-22T00:24:28.389Z,87.90
2018-11-22T00:26:55.988Z,88.10
2018-11-22T00:29:43.029Z,87.80
2018-11-22T00:32:29.903Z,87.50
2018-11-22T00:35:17.711Z,88.30
2018-11-22T00:37:46.745Z,89.00
2018-11-22T00:40:33.616Z,89.70
2018-11-22T00:43:22.493Z,88.90
2018-11-22T00:46:09.534Z,88.30
2018-11-22T00:48:56.506Z,87.30
2018-11-22T00:51:43.539Z,87.30
2018-11-22T00:54:30.402Z,87.50
2018-11-22T00:57:17.373Z,87.80
2018-11-22T01:05:37.828Z,86.60
2018-11-22T01:08:24.653Z,87.80
2018-11-22T01:10:52.176Z,88.30
2018-11-22T01:13:39.035Z,88.50
2018-11-22T01:16:25.903Z,88.40
2018-11-22T01:19:12.681Z,88.30
2018-11-22T01:21:40.320Z,88.30
2018-11-22T01:24:27.160Z,88.40
2018-11-22T01:27:13.970Z,88.60
2018-11-22T01:30:00.921Z,88.50
2018-11-22T01:32:48.850Z,88.10
2018-11-22T01:35:35.760Z,87.60
2018-11-22T01:38:22.566Z,86.70
2018-11-22T01:41:09.505Z,87.20
2018-11-22T01:43:56.476Z,87.90
2018-11-22T01:46:44.140Z,87.80
2018-11-22T01:49:31.085Z,87.50
2018-11-22T01:52:18.204Z,87.90
2018-11-22T01:55:05.846Z,88.20
2018-11-22T01:57:52.760Z,87.30
2018-11-22T02:00:39.799Z,86.80
2018-11-22T02:03:26.599Z,86.90
2018-11-22T02:06:13.465Z,87.60
2018-11-22T02:09:00.214Z,87.50
2018-11-22T02:11:47.203Z,88.20
2018-11-22T02:14:35.260Z,88.30
2018-11-22T02:17:22.331Z,87.70
2018-11-22T02:19:49.698Z,88.00
2018-11-22T02:22:17.125Z,88.10
2018-11-22T02:25:05.959Z,88.40
2018-11-22T02:27:52.957Z,88.50
2018-11-22T02:30:39.753Z,88.60
2018-11-22T02:33:26.576Z,88.10
2018-11-22T02:35:54.025Z,88.00
2018-11-22T02:38:21.477Z,87.80
2018-11-22T02:40:51.493Z,87.40
2018-11-22T02:43:38.266Z,87.60
2018-11-22T02:49:12.179Z,89.10
2018-11-22T02:51:59.137Z,88.90
2018-11-22T02:54:45.957Z,88.10
2018-11-22T02:57:13.403Z,87.60
2018-11-22T03:00:00.164Z,87.90
2018-11-22T03:02:47.100Z,87.30
2018-11-22T03:05:14.620Z,87.50
2018-11-22T03:08:01.500Z,87.40
2018-11-22T03:10:48.341Z,86.70
2018-11-22T03:13:35.219Z,87.00
2018-11-22T03:16:21.997Z,87.30
2018-11-22T03:19:08.791Z,87.30
2018-11-22T03:21:55.619Z,87.80
2018-11-22T03:24:42.714Z,88.10
2018-11-22T03:27:29.949Z,88.10
2018-11-22T03:30:18.455Z,87.80
2018-11-22T03:33:05.331Z,87.90
2018-11-22T03:35:52.269Z,88.30
2018-11-22T03:38:39.170Z,88.50
2018-11-22T03:41:25.980Z,88.20
2018-11-22T03:44:12.925Z,88.10
2018-11-22T03:46:59.893Z,87.60
2018-11-22T03:49:50.461Z,87.60
2018-11-22T03:52:34.590Z,88.20
2018-11-22T03:55:02.150Z,88.60
2018-11-22T03:57:49.411Z,88.50
2018-11-22T04:00:36.388Z,88.80
2018-11-22T04:03:23.376Z,88.40
2018-11-22T04:06:10.168Z,88.30
2018-11-22T04:08:57.057Z,88.20
2018-11-22T04:11:43.913Z,87.90
2018-11-22T04:14:30.804Z,88.10
2018-11-22T04:17:17.674Z,88.20
2018-11-22T04:19:45.169Z,88.30
2018-11-22T04:22:31.942Z,88.50
2018-11-22T04:24:59.285Z,88.90
2018-11-22T04:27:26.915Z,88.70
2018-11-22T04:29:54.259Z,89.20
2018-11-22T04:32:41.243Z,89.00
2018-11-22T04:35:30.882Z,89.10
2018-11-22T04:37:58.243Z,88.80
2018-11-22T04:40:45.037Z,89.10
2018-11-22T04:43:31.987Z,89.00
2018-11-22T04:46:19.145Z,88.30
2018-11-22T04:49:05.985Z,87.80
2018-11-22T04:51:52.808Z,87.90
2018-11-22T04:54:39.677Z,87.50
2018-11-22T04:57:07.050Z,87.30
2018-11-22T04:59:53.968Z,87.40
2018-11-22T05:02:40.949Z,87.70
2018-11-22T05:05:10.459Z,88.20
2018-11-22T05:07:57.297Z,87.60
2018-11-22T05:10:44.246Z,87.50
2018-11-22T05:13:31.316Z,87.70
2018-11-22T05:15:58.847Z,87.60
2018-11-22T05:18:45.755Z,88.10
2018-11-22T05:21:32.758Z,88.60
2018-11-22T05:24:20.681Z,88.30
2018-11-22T05:27:07.690Z,88.80
2018-11-22T05:29:54.649Z,88.90
2018-11-22T05:32:41.534Z,88.70
2018-11-22T05:35:29.562Z,89.10
2018-11-22T05:37:56.870Z,89.60
2018-11-22T05:40:43.772Z,89.60
2018-11-22T05:43:30.725Z,89.80
2018-11-22T05:45:58.062Z,89.60
2018-11-22T05:48:44.822Z,90.30
2018-11-22T05:51:12.377Z,90.10
2018-11-22T05:59:32.830Z,89.00
2018-11-22T06:02:19.829Z,89.50
2018-11-22T06:05:07.125Z,89.20
2018-11-22T06:07:54.344Z,89.50
2018-11-22T06:10:41.374Z,89.40
2018-11-22T06:13:08.713Z,89.50
2018-11-22T06:15:55.733Z,89.20
2018-11-22T06:18:42.773Z,88.90
2018-11-22T06:21:29.959Z,89.00
2018-11-22T06:24:17.085Z,89.20
2018-11-22T06:27:05.862Z,89.70
2018-11-22T06:29:55.804Z,90.30
2018-11-22T06:32:42.894Z,90.30
2018-11-22T06:35:10.401Z,90.50
2018-11-22T06:37:57.560Z,90.20
2018-11-22T06:40:44.430Z,90.10
2018-11-22T06:43:11.874Z,90.10
2018-11-22T06:45:58.680Z,90.00
2018-11-22T06:48:45.848Z,90.10
2018-11-22T06:51:32.802Z,90.40
2018-11-22T06:54:19.743Z,90.30
2018-11-22T06:56:47.256Z,90.20
2018-11-22T06:59:14.943Z,90.00
2018-11-22T07:02:01.838Z,89.60
2018-11-22T07:04:29.410Z,89.70
2018-11-22T07:07:16.255Z,90.00
2018-11-22T07:10:03.316Z,90.00
2018-11-22T07:12:50.290Z,90.20
2018-11-22T07:15:18.356Z,90.20
2018-11-22T07:18:05.180Z,90.20
2018-11-22T07:26:06.827Z,89.00
2018-11-22T07:28:53.745Z,90.00
2018-11-22T07:31:40.489Z,90.30
2018-11-22T07:34:27.583Z,90.50
2018-11-22T07:37:14.620Z,90.50
2018-11-22T07:39:42.059Z,90.20
2018-11-22T07:42:28.879Z,90.30
2018-11-22T07:45:17.164Z,90.20
2018-11-22T07:48:04.735Z,90.00
2018-11-22T07:50:51.543Z,90.10
2018-11-22T07:53:18.874Z,90.00
2018-11-22T07:55:46.125Z,90.20
2018-11-22T07:58:32.887Z,89.20
2018-11-22T08:01:00.190Z,88.80
2018-11-22T08:09:20.719Z,88.90
2018-11-22T08:12:12.180Z,87.30
2018-11-22T08:14:54.174Z,86.30
2018-11-22T08:17:41.331Z,86.20
2018-11-22T08:20:28.345Z,85.70
2018-11-22T08:23:15.471Z,85.40
2018-11-22T08:26:02.194Z,85.00
2018-11-22T08:28:48.951Z,83.80
2018-11-22T08:31:16.260Z,83.20
2018-11-22T08:34:03.106Z,82.80
2018-11-22T08:36:49.944Z,82.80
2018-11-22T08:42:23.652Z,83.10
2018-11-22T08:44:51.109Z,81.70
2018-11-22T08:47:38.058Z,81.20
2018-11-22T08:50:26.456Z,81.40
2018-11-22T08:53:13.155Z,82.50
2018-11-22T08:56:00.235Z,81.30
2018-11-22T08:58:47.102Z,79.20
2018-11-22T09:01:34.664Z,79.10
2018-11-22T09:07:08.439Z,80.50
2018-11-22T09:09:55.199Z,79.90
2018-11-22T09:12:42.587Z,80.70
2018-11-22T09:15:31.450Z,80.80
2018-11-22T09:21:04.384Z,80.20
2018-11-22T09:23:51.334Z,80.00
2018-11-22T09:26:31.613Z,80.60
2018-11-22T09:29:11.355Z,81.10
2018-11-22T09:31:50.925Z,80.30
2018-11-22T09:34:30.568Z,80.80
2018-11-22T09:37:10.995Z,79.80
2018-11-22T09:39:50.820Z,80.20
2018-11-22T09:42:31.285Z,81.20
2018-11-22T09:45:11.123Z,80.60
2018-11-22T09:47:51.487Z,80.40
2018-11-22T09:50:31.118Z,80.10
2018-11-22T09:53:11.163Z,79.50
2018-11-22T09:55:38.459Z,79.00
2018-11-22T09:58:06.304Z,78.60
2018-11-22T10:00:53.241Z,77.50
2018-11-22T10:03:39.958Z,76.80
2018-11-22T10:06:26.750Z,76.60
2018-11-22T10:09:13.561Z,77.00
2018-11-22T10:12:00.476Z,77.00
2018-11-22T10:14:47.231Z,76.00
2018-11-22T10:17:34.028Z,74.40
2018-11-22T10:20:22.167Z,74.70
2018-11-22T10:23:09.064Z,73.30
2018-11-22T10:25:55.866Z,74.00
2018-11-22T10:28:42.643Z,74.10
2018-11-22T10:31:29.880Z,74.20
2018-11-22T10:34:16.776Z,73.40
2018-11-22T10:37:03.627Z,72.80
2018-11-22T10:39:50.567Z,73.10
2018-11-22T10:42:37.729Z,73.10
2018-11-22T10:48:01.913Z,73.50
2018-11-22T10:50:33.081Z,73.70
2018-11-22T10:53:19.879Z,74.60
2018-11-22T10:56:06.630Z,73.50
2018-11-22T10:58:47.253Z,73.80
2018-11-22T11:01:53.482Z,74.40
2018-11-22T11:04:59.774Z,74.60
2018-11-22T11:08:06.134Z,73.50
2018-11-22T11:10:33.442Z,73.90
2018-11-22T11:13:00.765Z,73.00
2018-11-22T11:15:55.327Z,73.80
2018-11-22T11:18:24.065Z,73.20
2018-11-22T11:21:10.929Z,73.40
2018-11-22T11:23:57.787Z,74.90
2018-11-22T11:26:44.676Z,73.90
2018-11-22T11:29:31.535Z,73.80
2018-11-22T11:32:18.344Z,74.20
2018-11-22T11:35:07.106Z,74.70
2018-11-22T11:37:53.982Z,74.70
2018-11-22T11:44:03.188Z,74.40
2018-11-22T11:46:50.190Z,72.00
2018-11-22T11:49:36.979Z,72.20
2018-11-22T11:52:23.909Z,73.10
2018-11-22T11:55:11.413Z,73.10
2018-11-22T11:57:39.129Z,73.80
2018-11-22T12:03:20.315Z,74.10
2018-11-22T12:05:47.861Z,73.70
2018-11-22T12:08:15.178Z,75.00
2018-11-22T12:11:01.984Z,74.10
2018-11-22T12:13:49.392Z,74.60
2018-11-22T12:16:36.602Z,74.80
2018-11-22T12:19:23.860Z,75.30
2018-11-22T12:22:10.809Z,75.30
2018-11-22T12:24:57.643Z,75.80
2018-11-22T12:27:28.544Z,75.20
2018-11-22T12:29:56.357Z,75.40
2018-11-22T12:32:44.258Z,74.30
2018-11-22T12:35:29.413Z,74.70
2018-11-22T12:38:16.389Z,74.60
2018-11-22T12:40:43.749Z,74.10
2018-11-22T12:43:30.535Z,74.10
2018-11-22T12:46:17.489Z,75.40
2018-11-22T12:49:04.565Z,75.00
2018-11-22T12:51:51.850Z,74.80
2018-11-22T12:54:38.767Z,74.20
2018-11-22T12:57:26.206Z,74.90
2018-11-22T13:00:14.128Z,74.70
2018-11-22T13:03:00.988Z,75.10
2018-11-22T13:05:48.183Z,74.70
2018-11-22T13:08:35.192Z,75.20
2018-11-22T13:11:02.693Z,75.00
2018-11-22T13:13:49.496Z,75.30
2018-11-22T13:16:37.413Z,75.40
2018-11-22T13:19:05.005Z,74.80
2018-11-22T13:21:51.950Z,73.80
2018-11-22T13:24:39.114Z,74.80
2018-11-22T13:27:26.246Z,74.80
2018-11-22T13:30:32.969Z,75.20
2018-11-22T13:33:00.616Z,75.50
2018-11-22T13:35:47.566Z,75.70
2018-11-22T13:38:15.221Z,75.80
2018-11-22T13:41:02.073Z,75.50
2018-11-22T13:43:48.841Z,76.40
2018-11-22T13:46:35.710Z,76.20
2018-11-22T13:49:22.631Z,76.80
2018-11-22T13:52:09.574Z,76.50
2018-11-22T13:54:56.527Z,76.10
2018-11-22T13:57:23.915Z,76.60
2018-11-22T14:00:33.785Z,76.60
2018-11-22T14:03:20.574Z,77.20
2018-11-22T14:06:07.463Z,76.90
2018-11-22T14:08:54.288Z,77.00
2018-11-22T14:11:41.055Z,77.10
2018-11-22T14:14:27.937Z,76.70
2018-11-22T14:16:56.580Z,77.30
2018-11-22T14:19:42.962Z,77.00
2018-11-22T14:22:10.289Z,77.80
2018-11-22T14:24:57.165Z,78.10
2018-11-22T14:27:44.870Z,78.20
2018-11-22T14:30:13.743Z,77.90
2018-11-22T14:33:00.546Z,77.90
2018-11-22T14:35:47.452Z,77.70
2018-11-22T14:38:34.244Z,77.40
2018-11-22T14:41:21.221Z,77.50
2018-11-22T14:44:08.192Z,77.90
2018-11-22T14:46:35.900Z,77.80
2018-11-22T14:49:22.829Z,78.30
2018-11-22T14:51:51.421Z,78.00
2018-11-22T14:54:38.219Z,78.00
2018-11-22T14:57:25.134Z,77.80
2018-11-22T15:00:12.998Z,77.40
2018-11-22T15:02:59.745Z,77.70
2018-11-22T15:05:27.130Z,77.80
2018-11-22T15:08:13.905Z,77.90
2018-11-22T15:11:00.689Z,77.80
2018-11-22T15:13:47.500Z,77.90
2018-11-22T15:16:34.355Z,78.20
2018-11-22T15:19:21.188Z,78.20
2018-11-22T15:22:08.033Z,78.50
2018-11-22T15:24:54.996Z,78.70
2018-11-22T15:27:22.494Z,79.00
2018-11-22T15:30:10.950Z,79.50
2018-11-22T15:32:38.439Z,79.70
2018-11-22T15:35:26.768Z,80.00
2018-11-22T15:38:13.528Z,79.80
2018-11-22T15:41:00.397Z,79.60
2018-11-22T15:43:47.189Z,79.50
2018-11-22T15:46:14.483Z,79.80
2018-11-22T15:49:01.236Z,80.40
2018-11-22T15:51:48.017Z,80.90
2018-11-22T15:54:35.549Z,81.70
2018-11-22T15:57:22.342Z,82.80
2018-11-22T16:00:09.947Z,82.70
2018-11-22T16:02:37.566Z,82.90
2018-11-22T16:05:25.149Z,83.10
2018-11-22T16:07:52.527Z,82.80
2018-11-22T16:10:39.753Z,82.70
2018-11-22T16:13:26.481Z,83.10
2018-11-22T16:16:13.316Z,84.10
2018-11-22T16:18:40.774Z,84.50
2018-11-22T16:21:08.720Z,84.50
2018-11-22T16:23:36.024Z,84.40
2018-11-22T16:26:22.962Z,84.00
2018-11-22T16:29:09.683Z,84.20
2018-11-22T16:31:57.150Z,84.20
2018-11-22T16:34:43.901Z,84.10
2018-11-22T16:37:30.857Z,84.20
2018-11-22T16:40:19.279Z,84.70
2018-11-22T16:43:06.106Z,85.70
2018-11-22T16:45:35.067Z,85.90
2018-11-22T16:48:22.038Z,85.90
2018-11-22T16:51:09.076Z,86.40
2018-11-22T16:53:56.165Z,86.80
2018-11-22T16:59:29.851Z,88.00
2018-11-22T17:02:17.372Z,88.10
2018-11-22T17:07:42.263Z,88.60
2018-11-22T17:10:30.052Z,88.70
2018-11-22T17:13:17.276Z,88.70
2018-11-22T17:16:05.108Z,88.60
2018-11-22T17:18:52.085Z,88.50
2018-11-22T17:21:31.768Z,88.90
2018-11-22T17:24:12.459Z,88.80
2018-11-22T17:26:52.682Z,89.00
2018-11-22T17:29:32.363Z,88.80
2018-11-22T17:32:11.781Z,88.90
2018-11-22T17:37:35.066Z,88.30
2018-11-22T17:40:02.589Z,89.30
2018-11-22T17:42:49.453Z,89.80
2018-11-22T17:45:39.394Z,90.00
2018-11-22T17:48:07.216Z,90.10
2018-11-22T17:50:54.364Z,90.30
2018-11-22T17:53:41.187Z,90.40
2018-11-22T17:56:08.741Z,90.40
2018-11-22T17:58:36.951Z,90.50
2018-11-22T18:01:24.002Z,90.60
2018-11-22T18:04:11.695Z,90.60
2018-11-22T18:06:59.432Z,90.60
2018-11-22T18:09:27.077Z,90.50
2018-11-22T18:12:13.950Z,90.60
2018-11-22T18:15:01.544Z,90.50
2018-11-22T18:17:49.004Z,90.70
2018-11-22T18:20:36.358Z,90.80
2018-11-22T18:23:23.624Z,91.00
2018-11-22T18:26:10.427Z,91.10
2018-11-22T18:28:37.835Z,91.20
2018-11-22T18:31:25.214Z,91.10
2018-11-22T18:33:53.593Z,91.10
2018-11-22T18:36:40.742Z,91.00
2018-11-22T18:39:27.545Z,90.90
2018-11-22T18:42:14.863Z,91.10
2018-11-22T18:44:42.273Z,91.00
2018-11-22T18:47:29.264Z,90.70
2018-11-22T18:50:17.739Z,90.70
2018-11-22T18:52:49.022Z,90.80
2018-11-22T18:55:20.353Z,91.00
2018-11-22T18:57:48.865Z,91.00
2018-11-22T19:00:28.110Z,91.10
2018-11-22T19:02:57.014Z,91.10
2018-11-22T19:05:25.020Z,91.10
2018-11-22T19:08:12.842Z,91.00
2018-11-22T19:10:41.402Z,91.10
2018-11-22T19:13:28.679Z,91.20
2018-11-22T19:16:15.715Z,91.20
2018-11-22T19:19:05.830Z,91.10
2018-11-22T19:21:59.482Z,91.10
2018-11-22T19:24:46.488Z,91.30
2018-11-22T19:27:14.852Z,91.40
2018-11-22T19:30:03.774Z,91.20
2018-11-22T19:32:33.286Z,91.40
2018-11-22T19:35:21.708Z,91.40
2018-11-22T19:37:49.516Z,91.20
2018-11-22T19:40:19.147Z,91.20
2018-11-22T19:42:48.125Z,91.30
2018-11-22T19:45:36.287Z,91.40
2018-11-22T19:48:06.164Z,91.10
2018-11-22T19:50:32.810Z,90.80
2018-11-22T19:53:01.347Z,90.90
2018-11-22T19:55:48.147Z,91.00
2018-11-22T19:58:35.052Z,91.20
2018-11-22T20:01:22.062Z,91.20
2018-11-22T20:04:08.897Z,91.00
2018-11-22T20:06:56.322Z,90.70
2018-11-22T20:09:43.614Z,90.70
2018-11-22T20:12:30.881Z,90.90
2018-11-22T20:18:09.694Z,90.80
2018-11-22T20:20:37.708Z,90.60
2018-11-22T20:23:24.498Z,90.50
2018-11-22T20:26:11.995Z,90.50
2018-11-22T20:28:58.934Z,90.70
2018-11-22T20:31:46.337Z,90.70
2018-11-22T20:34:20.471Z,90.50
2018-11-22T20:37:07.700Z,90.60
2018-11-22T20:39:54.721Z,90.60
2018-11-22T20:42:42.310Z,90.50
2018-11-22T20:45:17.267Z,90.50
2018-11-22T20:48:07.831Z,90.60
2018-11-22T20:50:54.553Z,90.50
2018-11-22T20:53:41.447Z,90.40
2018-11-22T20:56:28.999Z,90.30
2018-11-22T20:59:16.008Z,90.30
2018-11-22T21:02:03.052Z,90.40
2018-11-22T21:04:50.081Z,90.50
2018-11-22T21:07:37.071Z,90.50
2018-11-22T21:10:43.355Z,90.50
2018-11-22T21:13:10.894Z,90.50
2018-11-22T21:15:38.652Z,90.50
2018-11-22T21:18:08.128Z,90.50
2018-11-22T21:23:26.594Z,90.60
2018-11-22T21:25:54.781Z,90.70
2018-11-22T21:28:22.806Z,90.70
2018-11-22T21:31:09.825Z,90.90
2018-11-22T21:33:37.704Z,90.80
2018-11-22T21:36:24.818Z,90.70
2018-11-22T21:38:52.551Z,90.50
2018-11-22T21:41:20.028Z,90.50
2018-11-22T21:43:47.685Z,90.50
2018-11-22T21:46:30.238Z,90.60
2018-11-22T21:49:17.364Z,90.60
2018-11-22T21:52:04.712Z,90.50
2018-11-22T21:54:32.318Z,90.60
2018-11-22T21:57:19.310Z,90.70
2018-11-22T22:00:08.617Z,90.80
2018-11-22T22:02:57.733Z,90.80
2018-11-22T22:05:45.032Z,91.00
2018-11-22T22:08:12.675Z,91.00
2018-11-22T22:10:59.593Z,91.00
2018-11-22T22:13:46.522Z,91.00
2018-11-22T22:16:33.496Z,90.70
2018-11-22T22:19:20.434Z,90.70
2018-11-22T22:22:07.424Z,90.80
2018-11-22T22:24:34.951Z,90.70
2018-11-22T22:27:21.812Z,90.70
2018-11-22T22:29:49.294Z,90.50
2018-11-22T22:32:36.293Z,90.50
2018-11-22T22:35:24.083Z,90.70
2018-11-22T22:38:11.172Z,90.80
2018-11-22T22:40:57.983Z,90.90
2018-11-22T22:43:44.978Z,91.10
2018-11-22T22:46:12.504Z,91.10
2018-11-22T22:48:59.518Z,91.20
2018-11-22T22:51:46.742Z,91.30
2018-11-22T22:54:14.145Z,91.40
2018-11-22T22:57:01.213Z,91.40
2018-11-22T22:59:48.260Z,91.60
2018-11-22T23:05:22.614Z,91.40
2018-11-22T23:08:09.520Z,91.00
2018-11-22T23:10:59.466Z,91.00
2018-11-22T23:13:47.063Z,90.90
2018-11-22T23:16:33.839Z,90.70
2018-11-22T23:19:01.288Z,90.50
2018-11-22T23:21:29.266Z,90.40
2018-11-22T23:24:16.133Z,90.30
2018-11-22T23:27:03.061Z,90.40
2018-11-22T23:29:50.139Z,90.30
2018-11-22T23:32:17.482Z,90.40
2018-11-22T23:35:04.659Z,90.30
2018-11-22T23:37:32.121Z,90.20
2018-11-22T23:40:00.036Z,90.10
2018-11-22T23:42:46.909Z,90.10
2018-11-22T23:45:33.999Z,90.00
2018-11-22T23:48:01.501Z,90.20
2018-11-22T23:50:48.413Z,90.40
2018-11-22T23:53:15.841Z,90.70
2018-11-22T23:55:43.538Z,90.30
2018-11-22T23:58:11.379Z,90.10
